sensor_id;sensor_type;location;lat;lon;timestamp;P1;durP1;ratioP1;P2;durP2;ratioP2
25657;SDS011;13517;59.320;18.042;2023-04-24T00:00:30;8.95;;;4.75;;
25657;SDS011;13517;59.320;18.042;2023-04-24T00:02:56;9.57;;;4.72;;
25657;SDS011;13517;59.320;18.042;2023-04-24T00:05:28;8.50;;;5.10;;
25657;SDS011;13517;59.320;18.042;2023-04-24T00:07:53;5.50;;;4.00;;
25657;SDS011;13517;59.320;18.042;2023-04-24T00:10:19;8.90;;;4.80;;
25657;SDS011;13517;59.320;18.042;2023-04-24T00:12:44;8.93;;;4.85;;
25657;SDS011;13517;59.320;18.042;2023-04-24T00:15:10;9.70;;;5.07;;
25657;SDS011;13517;59.320;18.042;2023-04-24T00:17:35;12.90;;;4.53;;
25657;SDS011;13517;59.320;18.042;2023-04-24T00:20:01;8.52;;;4.85;;
25657;SDS011;13517;59.320;18.042;2023-04-24T00:22:29;8.38;;;4.55;;
25657;SDS011;13517;59.320;18.042;2023-04-24T00:24:54;8.70;;;5.53;;
25657;SDS011;13517;59.320;18.042;2023-04-24T00:27:20;8.13;;;4.43;;
25657;SDS011;13517;59.320;18.042;2023-04-24T00:29:45;12.18;;;5.25;;
25657;SDS011;13517;59.320;18.042;2023-04-24T00:32:10;13.20;;;5.30;;
25657;SDS011;13517;59.320;18.042;2023-04-24T00:34:36;9.48;;;4.53;;
25657;SDS011;13517;59.320;18.042;2023-04-24T00:37:01;10.40;;;4.93;;
25657;SDS011;13517;59.320;18.042;2023-04-24T00:39:27;10.23;;;4.78;;
25657;SDS011;13517;59.320;18.042;2023-04-24T00:41:52;11.88;;;6.13;;
25657;SDS011;13517;59.320;18.042;2023-04-24T00:44:18;12.48;;;5.97;;
25657;SDS011;13517;59.320;18.042;2023-04-24T00:46:43;13.18;;;5.68;;
25657;SDS011;13517;59.320;18.042;2023-04-24T00:49:08;17.00;;;6.63;;
25657;SDS011;13517;59.320;18.042;2023-04-24T00:51:33;14.18;;;6.65;;
25657;SDS011;13517;59.320;18.042;2023-04-24T00:53:59;12.68;;;5.90;;
25657;SDS011;13517;59.320;18.042;2023-04-24T00:56:25;18.27;;;6.82;;
25657;SDS011;13517;59.320;18.042;2023-04-24T00:58:50;14.43;;;5.97;;
25657;SDS011;13517;59.320;18.042;2023-04-24T01:01:15;11.60;;;5.32;;
25657;SDS011;13517;59.320;18.042;2023-04-24T01:03:41;11.18;;;5.57;;
25657;SDS011;13517;59.320;18.042;2023-04-24T01:06:06;13.95;;;5.53;;
25657;SDS011;13517;59.320;18.042;2023-04-24T01:08:32;8.95;;;4.65;;
25657;SDS011;13517;59.320;18.042;2023-04-24T01:10:57;10.90;;;5.20;;
25657;SDS011;13517;59.320;18.042;2023-04-24T01:13:23;12.63;;;5.07;;
25657;SDS011;13517;59.320;18.042;2023-04-24T01:15:48;11.52;;;5.22;;
25657;SDS011;13517;59.320;18.042;2023-04-24T01:18:14;15.02;;;5.90;;
25657;SDS011;13517;59.320;18.042;2023-04-24T01:20:39;12.57;;;5.80;;
25657;SDS011;13517;59.320;18.042;2023-04-24T01:23:05;15.30;;;6.22;;
25657;SDS011;13517;59.320;18.042;2023-04-24T01:25:31;14.15;;;5.70;;
25657;SDS011;13517;59.320;18.042;2023-04-24T01:27:56;14.35;;;5.35;;
25657;SDS011;13517;59.320;18.042;2023-04-24T01:30:22;15.82;;;5.65;;
25657;SDS011;13517;59.320;18.042;2023-04-24T01:32:47;11.75;;;5.00;;
25657;SDS011;13517;59.320;18.042;2023-04-24T01:35:13;12.88;;;5.45;;
25657;SDS011;13517;59.320;18.042;2023-04-24T01:37:38;12.38;;;6.38;;
25657;SDS011;13517;59.320;18.042;2023-04-24T01:40:05;17.00;;;6.32;;
25657;SDS011;13517;59.320;18.042;2023-04-24T01:42:31;17.40;;;7.10;;
25657;SDS011;13517;59.320;18.042;2023-04-24T01:44:56;18.80;;;7.03;;
25657;SDS011;13517;59.320;18.042;2023-04-24T01:47:22;16.25;;;6.80;;
25657;SDS011;13517;59.320;18.042;2023-04-24T01:49:48;15.75;;;6.75;;
25657;SDS011;13517;59.320;18.042;2023-04-24T01:52:13;19.92;;;6.30;;
25657;SDS011;13517;59.320;18.042;2023-04-24T01:54:38;19.80;;;6.25;;
25657;SDS011;13517;59.320;18.042;2023-04-24T01:57:04;17.65;;;6.50;;
25657;SDS011;13517;59.320;18.042;2023-04-24T01:59:29;16.58;;;6.00;;
25657;SDS011;13517;59.320;18.042;2023-04-24T02:01:55;22.13;;;7.45;;
25657;SDS011;13517;59.320;18.042;2023-04-24T02:04:20;21.35;;;6.82;;
25657;SDS011;13517;59.320;18.042;2023-04-24T02:06:45;17.00;;;6.55;;
25657;SDS011;13517;59.320;18.042;2023-04-24T02:09:11;16.98;;;5.95;;
25657;SDS011;13517;59.320;18.042;2023-04-24T02:11:36;16.50;;;6.13;;
25657;SDS011;13517;59.320;18.042;2023-04-24T02:14:01;17.42;;;6.13;;
25657;SDS011;13517;59.320;18.042;2023-04-24T02:16:28;16.60;;;6.70;;
25657;SDS011;13517;59.320;18.042;2023-04-24T02:18:55;21.02;;;6.07;;
25657;SDS011;13517;59.320;18.042;2023-04-24T02:21:20;16.92;;;6.50;;
25657;SDS011;13517;59.320;18.042;2023-04-24T02:23:45;19.80;;;6.85;;
25657;SDS011;13517;59.320;18.042;2023-04-24T02:26:11;16.17;;;6.57;;
25657;SDS011;13517;59.320;18.042;2023-04-24T02:28:36;18.33;;;6.32;;
25657;SDS011;13517;59.320;18.042;2023-04-24T02:31:01;16.05;;;6.53;;
25657;SDS011;13517;59.320;18.042;2023-04-24T02:33:26;8.25;;;4.15;;
25657;SDS011;13517;59.320;18.042;2023-04-24T02:35:52;6.88;;;3.63;;
25657;SDS011;13517;59.320;18.042;2023-04-24T02:38:17;9.10;;;4.20;;
25657;SDS011;13517;59.320;18.042;2023-04-24T02:40:42;9.23;;;4.30;;
25657;SDS011;13517;59.320;18.042;2023-04-24T02:43:07;12.90;;;3.85;;
25657;SDS011;13517;59.320;18.042;2023-04-24T02:45:33;12.27;;;3.90;;
25657;SDS011;13517;59.320;18.042;2023-04-24T02:47:59;15.57;;;4.50;;
25657;SDS011;13517;59.320;18.042;2023-04-24T02:50:25;14.75;;;4.70;;
25657;SDS011;13517;59.320;18.042;2023-04-24T02:52:50;15.82;;;5.10;;
25657;SDS011;13517;59.320;18.042;2023-04-24T02:55:15;18.17;;;5.68;;
25657;SDS011;13517;59.320;18.042;2023-04-24T02:57:40;14.05;;;4.60;;
25657;SDS011;13517;59.320;18.042;2023-04-24T03:00:06;15.55;;;5.78;;
25657;SDS011;13517;59.320;18.042;2023-04-24T03:02:32;20.00;;;6.07;;
25657;SDS011;13517;59.320;18.042;2023-04-24T03:04:57;15.38;;;5.38;;
25657;SDS011;13517;59.320;18.042;2023-04-24T03:07:22;21.17;;;6.32;;
25657;SDS011;13517;59.320;18.042;2023-04-24T03:09:49;19.67;;;6.60;;
25657;SDS011;13517;59.320;18.042;2023-04-24T03:12:14;21.67;;;6.35;;
25657;SDS011;13517;59.320;18.042;2023-04-24T03:14:39;17.15;;;6.03;;
25657;SDS011;13517;59.320;18.042;2023-04-24T03:17:04;18.38;;;6.07;;
25657;SDS011;13517;59.320;18.042;2023-04-24T03:19:30;16.45;;;5.68;;
25657;SDS011;13517;59.320;18.042;2023-04-24T03:21:55;20.13;;;5.95;;
25657;SDS011;13517;59.320;18.042;2023-04-24T03:24:20;17.98;;;5.95;;
25657;SDS011;13517;59.320;18.042;2023-04-24T03:26:46;17.30;;;5.30;;
25657;SDS011;13517;59.320;18.042;2023-04-24T03:29:11;19.60;;;5.40;;
25657;SDS011;13517;59.320;18.042;2023-04-24T03:31:36;13.82;;;4.95;;
25657;SDS011;13517;59.320;18.042;2023-04-24T03:34:01;15.20;;;5.20;;
25657;SDS011;13517;59.320;18.042;2023-04-24T03:36:27;15.82;;;5.32;;
25657;SDS011;13517;59.320;18.042;2023-04-24T03:38:52;18.27;;;5.88;;
25657;SDS011;13517;59.320;18.042;2023-04-24T03:41:17;16.25;;;5.32;;
25657;SDS011;13517;59.320;18.042;2023-04-24T03:43:43;18.23;;;5.70;;
25657;SDS011;13517;59.320;18.042;2023-04-24T03:46:09;20.75;;;5.57;;
25657;SDS011;13517;59.320;18.042;2023-04-24T03:48:34;18.77;;;5.90;;
25657;SDS011;13517;59.320;18.042;2023-04-24T03:51:00;20.40;;;6.35;;
25657;SDS011;13517;59.320;18.042;2023-04-24T03:53:25;22.35;;;5.88;;
25657;SDS011;13517;59.320;18.042;2023-04-24T03:55:51;18.95;;;6.47;;
25657;SDS011;13517;59.320;18.042;2023-04-24T03:58:17;21.17;;;6.28;;
25657;SDS011;13517;59.320;18.042;2023-04-24T04:00:42;20.60;;;6.43;;
25657;SDS011;13517;59.320;18.042;2023-04-24T04:03:09;18.33;;;6.32;;
25657;SDS011;13517;59.320;18.042;2023-04-24T04:05:34;17.55;;;6.40;;
25657;SDS011;13517;59.320;18.042;2023-04-24T04:08:01;14.93;;;5.97;;
25657;SDS011;13517;59.320;18.042;2023-04-24T04:10:27;15.13;;;6.10;;
25657;SDS011;13517;59.320;18.042;2023-04-24T04:12:52;15.13;;;5.78;;
25657;SDS011;13517;59.320;18.042;2023-04-24T04:15:17;15.50;;;5.53;;
25657;SDS011;13517;59.320;18.042;2023-04-24T04:17:42;17.27;;;5.97;;
25657;SDS011;13517;59.320;18.042;2023-04-24T04:20:08;18.10;;;6.07;;
25657;SDS011;13517;59.320;18.042;2023-04-24T04:22:35;15.95;;;5.78;;
25657;SDS011;13517;59.320;18.042;2023-04-24T04:25:00;16.52;;;5.72;;
25657;SDS011;13517;59.320;18.042;2023-04-24T04:27:26;15.05;;;5.57;;
25657;SDS011;13517;59.320;18.042;2023-04-24T04:29:51;15.85;;;6.57;;
25657;SDS011;13517;59.320;18.042;2023-04-24T04:32:17;20.30;;;7.30;;
25657;SDS011;13517;59.320;18.042;2023-04-24T04:34:42;21.73;;;6.45;;
25657;SDS011;13517;59.320;18.042;2023-04-24T04:37:10;13.63;;;5.63;;
25657;SDS011;13517;59.320;18.042;2023-04-24T04:39:36;14.65;;;6.05;;
25657;SDS011;13517;59.320;18.042;2023-04-24T04:42:01;16.35;;;5.72;;
25657;SDS011;13517;59.320;18.042;2023-04-24T04:44:27;17.65;;;6.18;;
25657;SDS011;13517;59.320;18.042;2023-04-24T04:46:52;14.40;;;5.45;;
25657;SDS011;13517;59.320;18.042;2023-04-24T04:49:18;14.60;;;5.63;;
25657;SDS011;13517;59.320;18.042;2023-04-24T04:51:43;15.65;;;6.38;;
25657;SDS011;13517;59.320;18.042;2023-04-24T04:54:09;17.15;;;5.90;;
25657;SDS011;13517;59.320;18.042;2023-04-24T04:56:35;18.65;;;6.82;;
25657;SDS011;13517;59.320;18.042;2023-04-24T04:59:00;19.70;;;6.55;;
25657;SDS011;13517;59.320;18.042;2023-04-24T05:01:25;22.10;;;7.03;;
25657;SDS011;13517;59.320;18.042;2023-04-24T05:03:52;16.30;;;6.45;;
25657;SDS011;13517;59.320;18.042;2023-04-24T05:06:17;17.23;;;6.72;;
25657;SDS011;13517;59.320;18.042;2023-04-24T05:08:42;16.33;;;6.05;;
25657;SDS011;13517;59.320;18.042;2023-04-24T05:11:08;22.13;;;7.28;;
25657;SDS011;13517;59.320;18.042;2023-04-24T05:13:33;24.63;;;6.72;;
25657;SDS011;13517;59.320;18.042;2023-04-24T05:15:58;20.30;;;6.53;;
25657;SDS011;13517;59.320;18.042;2023-04-24T05:18:24;20.15;;;6.78;;
25657;SDS011;13517;59.320;18.042;2023-04-24T05:20:49;17.33;;;6.18;;
25657;SDS011;13517;59.320;18.042;2023-04-24T05:23:14;16.17;;;6.25;;
25657;SDS011;13517;59.320;18.042;2023-04-24T05:25:39;20.00;;;6.45;;
25657;SDS011;13517;59.320;18.042;2023-04-24T05:28:06;15.45;;;5.85;;
25657;SDS011;13517;59.320;18.042;2023-04-24T05:30:31;14.10;;;6.22;;
25657;SDS011;13517;59.320;18.042;2023-04-24T05:32:56;20.13;;;6.47;;
25657;SDS011;13517;59.320;18.042;2023-04-24T05:35:22;19.83;;;5.68;;
25657;SDS011;13517;59.320;18.042;2023-04-24T05:37:47;20.75;;;6.35;;
25657;SDS011;13517;59.320;18.042;2023-04-24T05:40:12;17.02;;;6.50;;
25657;SDS011;13517;59.320;18.042;2023-04-24T05:42:38;16.15;;;6.88;;
25657;SDS011;13517;59.320;18.042;2023-04-24T05:45:03;16.98;;;6.43;;
25657;SDS011;13517;59.320;18.042;2023-04-24T05:47:29;17.90;;;6.25;;
25657;SDS011;13517;59.320;18.042;2023-04-24T05:49:54;13.75;;;5.65;;
25657;SDS011;13517;59.320;18.042;2023-04-24T05:52:20;14.95;;;5.45;;
25657;SDS011;13517;59.320;18.042;2023-04-24T05:54:45;14.85;;;6.05;;
25657;SDS011;13517;59.320;18.042;2023-04-24T05:57:10;11.95;;;4.75;;
25657;SDS011;13517;59.320;18.042;2023-04-24T05:59:36;11.52;;;5.13;;
25657;SDS011;13517;59.320;18.042;2023-04-24T06:02:02;13.43;;;4.82;;
25657;SDS011;13517;59.320;18.042;2023-04-24T06:04:27;14.48;;;4.72;;
25657;SDS011;13517;59.320;18.042;2023-04-24T06:06:53;9.80;;;4.13;;
25657;SDS011;13517;59.320;18.042;2023-04-24T06:09:21;12.57;;;3.85;;
25657;SDS011;13517;59.320;18.042;2023-04-24T06:11:46;9.40;;;4.13;;
25657;SDS011;13517;59.320;18.042;2023-04-24T06:14:11;9.15;;;3.80;;
25657;SDS011;13517;59.320;18.042;2023-04-24T06:16:37;9.10;;;3.50;;
25657;SDS011;13517;59.320;18.042;2023-04-24T06:19:03;7.72;;;2.72;;
25657;SDS011;13517;59.320;18.042;2023-04-24T06:21:29;7.68;;;3.13;;
25657;SDS011;13517;59.320;18.042;2023-04-24T06:23:54;8.45;;;3.78;;
25657;SDS011;13517;59.320;18.042;2023-04-24T06:26:21;8.57;;;3.40;;
25657;SDS011;13517;59.320;18.042;2023-04-24T06:28:47;8.02;;;3.00;;
25657;SDS011;13517;59.320;18.042;2023-04-24T06:31:12;8.05;;;3.25;;
25657;SDS011;13517;59.320;18.042;2023-04-24T06:33:37;12.10;;;3.10;;
25657;SDS011;13517;59.320;18.042;2023-04-24T06:36:03;12.85;;;3.53;;
25657;SDS011;13517;59.320;18.042;2023-04-24T06:38:29;9.48;;;2.75;;
25657;SDS011;13517;59.320;18.042;2023-04-24T06:40:54;7.93;;;3.53;;
25657;SDS011;13517;59.320;18.042;2023-04-24T06:43:19;6.93;;;2.90;;
25657;SDS011;13517;59.320;18.042;2023-04-24T06:45:45;9.18;;;3.65;;
25657;SDS011;13517;59.320;18.042;2023-04-24T06:48:12;8.15;;;2.70;;
25657;SDS011;13517;59.320;18.042;2023-04-24T06:50:37;5.53;;;2.65;;
25657;SDS011;13517;59.320;18.042;2023-04-24T06:53:02;8.20;;;3.38;;
25657;SDS011;13517;59.320;18.042;2023-04-24T06:55:28;7.55;;;3.47;;
25657;SDS011;13517;59.320;18.042;2023-04-24T06:57:53;7.25;;;3.13;;
25657;SDS011;13517;59.320;18.042;2023-04-24T07:00:18;6.70;;;3.42;;
25657;SDS011;13517;59.320;18.042;2023-04-24T07:02:43;8.55;;;4.32;;
25657;SDS011;13517;59.320;18.042;2023-04-24T07:05:09;6.50;;;3.78;;
25657;SDS011;13517;59.320;18.042;2023-04-24T07:07:34;10.50;;;4.00;;
25657;SDS011;13517;59.320;18.042;2023-04-24T07:10:02;7.22;;;4.05;;
25657;SDS011;13517;59.320;18.042;2023-04-24T07:12:28;7.28;;;3.80;;
25657;SDS011;13517;59.320;18.042;2023-04-24T07:14:53;6.95;;;3.58;;
25657;SDS011;13517;59.320;18.042;2023-04-24T07:17:19;11.70;;;5.18;;
25657;SDS011;13517;59.320;18.042;2023-04-24T07:19:44;10.55;;;5.03;;
25657;SDS011;13517;59.320;18.042;2023-04-24T07:22:10;8.40;;;4.28;;
25657;SDS011;13517;59.320;18.042;2023-04-24T07:24:41;9.57;;;4.00;;
25657;SDS011;13517;59.320;18.042;2023-04-24T07:27:06;8.30;;;3.15;;
25657;SDS011;13517;59.320;18.042;2023-04-24T07:29:32;6.25;;;3.28;;
25657;SDS011;13517;59.320;18.042;2023-04-24T07:31:57;7.10;;;2.85;;
25657;SDS011;13517;59.320;18.042;2023-04-24T07:34:22;6.00;;;3.10;;
25657;SDS011;13517;59.320;18.042;2023-04-24T07:36:47;7.95;;;2.95;;
25657;SDS011;13517;59.320;18.042;2023-04-24T07:39:13;6.85;;;3.20;;
25657;SDS011;13517;59.320;18.042;2023-04-24T07:41:38;4.50;;;2.63;;
25657;SDS011;13517;59.320;18.042;2023-04-24T07:44:03;4.85;;;2.47;;
25657;SDS011;13517;59.320;18.042;2023-04-24T07:46:29;5.10;;;2.10;;
25657;SDS011;13517;59.320;18.042;2023-04-24T07:48:55;5.80;;;2.20;;
25657;SDS011;13517;59.320;18.042;2023-04-24T07:51:20;8.27;;;2.55;;
25657;SDS011;13517;59.320;18.042;2023-04-24T07:53:46;6.03;;;2.25;;
25657;SDS011;13517;59.320;18.042;2023-04-24T07:56:11;3.53;;;2.03;;
25657;SDS011;13517;59.320;18.042;2023-04-24T07:58:37;4.47;;;2.10;;
25657;SDS011;13517;59.320;18.042;2023-04-24T08:01:02;3.92;;;1.98;;
25657;SDS011;13517;59.320;18.042;2023-04-24T08:03:27;3.10;;;2.00;;
25657;SDS011;13517;59.320;18.042;2023-04-24T08:05:52;4.63;;;2.35;;
25657;SDS011;13517;59.320;18.042;2023-04-24T08:08:19;3.63;;;2.30;;
25657;SDS011;13517;59.320;18.042;2023-04-24T08:10:44;5.20;;;2.30;;
25657;SDS011;13517;59.320;18.042;2023-04-24T08:13:10;3.58;;;2.30;;
25657;SDS011;13517;59.320;18.042;2023-04-24T08:15:36;6.30;;;2.78;;
25657;SDS011;13517;59.320;18.042;2023-04-24T08:18:02;7.82;;;2.72;;
25657;SDS011;13517;59.320;18.042;2023-04-24T08:20:27;5.32;;;3.08;;
25657;SDS011;13517;59.320;18.042;2023-04-24T08:22:52;4.50;;;2.75;;
25657;SDS011;13517;59.320;18.042;2023-04-24T08:25:19;5.32;;;2.80;;
25657;SDS011;13517;59.320;18.042;2023-04-24T08:27:44;5.28;;;3.10;;
25657;SDS011;13517;59.320;18.042;2023-04-24T08:30:09;4.13;;;2.80;;
25657;SDS011;13517;59.320;18.042;2023-04-24T08:32:35;5.13;;;3.05;;
25657;SDS011;13517;59.320;18.042;2023-04-24T08:35:01;6.28;;;2.88;;
25657;SDS011;13517;59.320;18.042;2023-04-24T08:37:26;7.05;;;3.53;;
25657;SDS011;13517;59.320;18.042;2023-04-24T08:39:52;6.05;;;3.65;;
25657;SDS011;13517;59.320;18.042;2023-04-24T08:42:18;5.15;;;3.67;;
25657;SDS011;13517;59.320;18.042;2023-04-24T08:44:43;11.90;;;4.05;;
25657;SDS011;13517;59.320;18.042;2023-04-24T08:47:09;6.38;;;3.35;;
25657;SDS011;13517;59.320;18.042;2023-04-24T08:49:35;5.47;;;3.42;;
25657;SDS011;13517;59.320;18.042;2023-04-24T08:52:01;4.43;;;3.17;;
25657;SDS011;13517;59.320;18.042;2023-04-24T08:54:26;5.95;;;3.70;;
25657;SDS011;13517;59.320;18.042;2023-04-24T08:56:53;4.28;;;3.10;;
25657;SDS011;13517;59.320;18.042;2023-04-24T08:59:18;4.13;;;2.92;;
25657;SDS011;13517;59.320;18.042;2023-04-24T09:01:44;4.75;;;2.90;;
25657;SDS011;13517;59.320;18.042;2023-04-24T09:04:10;4.85;;;2.53;;
25657;SDS011;13517;59.320;18.042;2023-04-24T09:06:37;6.03;;;2.90;;
25657;SDS011;13517;59.320;18.042;2023-04-24T09:09:02;3.75;;;2.67;;
25657;SDS011;13517;59.320;18.042;2023-04-24T09:11:29;3.72;;;2.78;;
25657;SDS011;13517;59.320;18.042;2023-04-24T09:13:55;4.30;;;3.05;;
25657;SDS011;13517;59.320;18.042;2023-04-24T09:16:21;7.50;;;2.65;;
25657;SDS011;13517;59.320;18.042;2023-04-24T09:18:48;9.85;;;2.58;;
25657;SDS011;13517;59.320;18.042;2023-04-24T09:21:13;7.25;;;3.00;;
25657;SDS011;13517;59.320;18.042;2023-04-24T09:23:39;6.28;;;2.90;;
25657;SDS011;13517;59.320;18.042;2023-04-24T09:26:05;5.45;;;2.58;;
25657;SDS011;13517;59.320;18.042;2023-04-24T09:28:37;5.03;;;2.88;;
25657;SDS011;13517;59.320;18.042;2023-04-24T09:31:12;8.48;;;3.33;;
25657;SDS011;13517;59.320;18.042;2023-04-24T09:33:40;4.10;;;2.85;;
25657;SDS011;13517;59.320;18.042;2023-04-24T09:36:05;4.63;;;2.38;;
25657;SDS011;13517;59.320;18.042;2023-04-24T09:38:35;4.55;;;2.90;;
25657;SDS011;13517;59.320;18.042;2023-04-24T09:41:07;5.18;;;2.97;;
25657;SDS011;13517;59.320;18.042;2023-04-24T09:43:33;7.18;;;3.53;;
25657;SDS011;13517;59.320;18.042;2023-04-24T09:45:59;6.47;;;3.05;;
25657;SDS011;13517;59.320;18.042;2023-04-24T09:48:35;5.55;;;3.30;;
25657;SDS011;13517;59.320;18.042;2023-04-24T09:51:01;5.30;;;3.00;;
25657;SDS011;13517;59.320;18.042;2023-04-24T09:53:28;4.22;;;3.00;;
25657;SDS011;13517;59.320;18.042;2023-04-24T09:55:53;6.57;;;2.78;;
25657;SDS011;13517;59.320;18.042;2023-04-24T09:58:24;7.88;;;3.33;;
25657;SDS011;13517;59.320;18.042;2023-04-24T10:00:49;6.07;;;3.10;;
25657;SDS011;13517;59.320;18.042;2023-04-24T10:03:15;5.85;;;2.78;;
25657;SDS011;13517;59.320;18.042;2023-04-24T10:05:42;7.32;;;2.97;;
25657;SDS011;13517;59.320;18.042;2023-04-24T10:08:11;3.60;;;2.60;;
25657;SDS011;13517;59.320;18.042;2023-04-24T10:10:43;4.43;;;2.92;;
25657;SDS011;13517;59.320;18.042;2023-04-24T10:13:09;7.72;;;3.55;;
25657;SDS011;13517;59.320;18.042;2023-04-24T10:15:35;6.63;;;3.72;;
25657;SDS011;13517;59.320;18.042;2023-04-24T10:18:00;6.20;;;3.42;;
25657;SDS011;13517;59.320;18.042;2023-04-24T10:20:27;4.72;;;3.00;;
25657;SDS011;13517;59.320;18.042;2023-04-24T10:22:56;10.13;;;3.75;;
25657;SDS011;13517;59.320;18.042;2023-04-24T10:25:23;11.35;;;3.47;;
25657;SDS011;13517;59.320;18.042;2023-04-24T10:27:49;9.60;;;3.80;;
25657;SDS011;13517;59.320;18.042;2023-04-24T10:30:15;8.30;;;3.45;;
25657;SDS011;13517;59.320;18.042;2023-04-24T10:32:40;9.95;;;3.60;;
25657;SDS011;13517;59.320;18.042;2023-04-24T10:35:06;8.77;;;3.17;;
25657;SDS011;13517;59.320;18.042;2023-04-24T10:37:36;7.40;;;3.53;;
25657;SDS011;13517;59.320;18.042;2023-04-24T10:40:02;11.27;;;3.75;;
25657;SDS011;13517;59.320;18.042;2023-04-24T10:42:27;5.80;;;3.08;;
25657;SDS011;13517;59.320;18.042;2023-04-24T10:44:53;8.27;;;4.22;;
25657;SDS011;13517;59.320;18.042;2023-04-24T10:47:19;4.55;;;2.80;;
25657;SDS011;13517;59.320;18.042;2023-04-24T10:49:44;13.60;;;3.53;;
25657;SDS011;13517;59.320;18.042;2023-04-24T10:52:10;7.05;;;3.35;;
25657;SDS011;13517;59.320;18.042;2023-04-24T10:59:43;4.50;;;2.80;;
25657;SDS011;13517;59.320;18.042;2023-04-24T11:02:08;10.65;;;3.13;;
25657;SDS011;13517;59.320;18.042;2023-04-24T11:04:34;6.55;;;3.83;;
25657;SDS011;13517;59.320;18.042;2023-04-24T11:07:02;10.35;;;2.90;;
25657;SDS011;13517;59.320;18.042;2023-04-24T11:09:29;6.15;;;3.15;;
25657;SDS011;13517;59.320;18.042;2023-04-24T11:12:08;5.78;;;2.95;;
25657;SDS011;13517;59.320;18.042;2023-04-24T11:17:43;5.85;;;3.13;;
25657;SDS011;13517;59.320;18.042;2023-04-24T11:20:09;6.00;;;2.72;;
25657;SDS011;13517;59.320;18.042;2023-04-24T11:22:36;8.15;;;3.20;;
25657;SDS011;13517;59.320;18.042;2023-04-24T11:25:04;3.45;;;2.28;;
25657;SDS011;13517;59.320;18.042;2023-04-24T11:27:30;3.08;;;2.30;;
25657;SDS011;13517;59.320;18.042;2023-04-24T11:34:58;5.32;;;3.15;;
25657;SDS011;13517;59.320;18.042;2023-04-24T11:37:24;5.38;;;2.90;;
25657;SDS011;13517;59.320;18.042;2023-04-24T11:39:52;7.05;;;2.97;;
25657;SDS011;13517;59.320;18.042;2023-04-24T11:42:17;8.77;;;3.53;;
25657;SDS011;13517;59.320;18.042;2023-04-24T11:44:43;7.32;;;3.50;;
25657;SDS011;13517;59.320;18.042;2023-04-24T11:47:08;8.50;;;3.58;;
25657;SDS011;13517;59.320;18.042;2023-04-24T11:49:36;8.55;;;2.92;;
25657;SDS011;13517;59.320;18.042;2023-04-24T11:52:01;11.75;;;4.05;;
25657;SDS011;13517;59.320;18.042;2023-04-24T11:54:26;10.00;;;4.00;;
25657;SDS011;13517;59.320;18.042;2023-04-24T11:56:52;7.40;;;3.75;;
25657;SDS011;13517;59.320;18.042;2023-04-24T11:59:17;12.90;;;4.38;;
25657;SDS011;13517;59.320;18.042;2023-04-24T12:01:46;6.00;;;3.60;;
25657;SDS011;13517;59.320;18.042;2023-04-24T12:04:12;6.25;;;3.85;;
25657;SDS011;13517;59.320;18.042;2023-04-24T12:06:37;6.53;;;3.72;;
25657;SDS011;13517;59.320;18.042;2023-04-24T12:09:02;12.85;;;4.43;;
25657;SDS011;13517;59.320;18.042;2023-04-24T12:11:28;7.82;;;4.00;;
25657;SDS011;13517;59.320;18.042;2023-04-24T12:13:53;7.28;;;4.18;;
25657;SDS011;13517;59.320;18.042;2023-04-24T12:16:18;6.82;;;4.47;;
25657;SDS011;13517;59.320;18.042;2023-04-24T12:18:44;6.85;;;4.47;;
25657;SDS011;13517;59.320;18.042;2023-04-24T12:21:20;9.00;;;4.60;;
25657;SDS011;13517;59.320;18.042;2023-04-24T12:23:45;9.27;;;4.30;;
25657;SDS011;13517;59.320;18.042;2023-04-24T12:26:11;7.20;;;3.70;;
25657;SDS011;13517;59.320;18.042;2023-04-24T12:28:37;10.25;;;3.78;;
25657;SDS011;13517;59.320;18.042;2023-04-24T12:31:03;8.50;;;3.72;;
25657;SDS011;13517;59.320;18.042;2023-04-24T12:33:31;4.40;;;3.30;;
25657;SDS011;13517;59.320;18.042;2023-04-24T12:35:57;6.97;;;3.63;;
25657;SDS011;13517;59.320;18.042;2023-04-24T12:38:22;4.55;;;3.17;;
25657;SDS011;13517;59.320;18.042;2023-04-24T12:41:00;6.82;;;3.70;;
25657;SDS011;13517;59.320;18.042;2023-04-24T12:43:26;11.13;;;4.30;;
25657;SDS011;13517;59.320;18.042;2023-04-24T12:45:51;7.07;;;3.67;;
25657;SDS011;13517;59.320;18.042;2023-04-24T12:48:16;16.65;;;4.10;;
25657;SDS011;13517;59.320;18.042;2023-04-24T12:50:42;17.23;;;4.60;;
25657;SDS011;13517;59.320;18.042;2023-04-24T12:53:08;7.03;;;3.67;;
25657;SDS011;13517;59.320;18.042;2023-04-24T12:55:33;14.77;;;4.63;;
25657;SDS011;13517;59.320;18.042;2023-04-24T12:57:59;9.70;;;4.72;;
25657;SDS011;13517;59.320;18.042;2023-04-24T13:00:24;10.30;;;4.93;;
25657;SDS011;13517;59.320;18.042;2023-04-24T13:02:49;14.95;;;5.53;;
25657;SDS011;13517;59.320;18.042;2023-04-24T13:05:15;18.63;;;5.15;;
25657;SDS011;13517;59.320;18.042;2023-04-24T13:07:40;13.73;;;4.40;;
25657;SDS011;13517;59.320;18.042;2023-04-24T13:10:06;11.82;;;4.72;;
25657;SDS011;13517;59.320;18.042;2023-04-24T13:12:32;17.00;;;5.03;;
25657;SDS011;13517;59.320;18.042;2023-04-24T13:14:57;9.50;;;4.57;;
25657;SDS011;13517;59.320;18.042;2023-04-24T13:17:22;7.72;;;4.28;;
25657;SDS011;13517;59.320;18.042;2023-04-24T13:19:48;10.45;;;4.32;;
25657;SDS011;13517;59.320;18.042;2023-04-24T13:22:14;11.63;;;4.82;;
25657;SDS011;13517;59.320;18.042;2023-04-24T13:24:39;8.35;;;4.68;;
25657;SDS011;13517;59.320;18.042;2023-04-24T13:27:07;7.53;;;4.32;;
25657;SDS011;13517;59.320;18.042;2023-04-24T13:29:32;12.50;;;4.35;;
25657;SDS011;13517;59.320;18.042;2023-04-24T13:31:57;8.55;;;4.10;;
25657;SDS011;13517;59.320;18.042;2023-04-24T13:34:23;6.20;;;3.80;;
25657;SDS011;13517;59.320;18.042;2023-04-24T13:36:49;11.00;;;5.00;;
25657;SDS011;13517;59.320;18.042;2023-04-24T13:39:15;10.35;;;4.40;;
25657;SDS011;13517;59.320;18.042;2023-04-24T13:41:42;15.77;;;5.03;;
25657;SDS011;13517;59.320;18.042;2023-04-24T13:44:07;15.48;;;5.53;;
25657;SDS011;13517;59.320;18.042;2023-04-24T13:46:33;11.63;;;5.25;;
25657;SDS011;13517;59.320;18.042;2023-04-24T13:48:58;12.02;;;4.85;;
25657;SDS011;13517;59.320;18.042;2023-04-24T13:51:25;15.20;;;5.25;;
25657;SDS011;13517;59.320;18.042;2023-04-24T13:53:52;10.82;;;4.72;;
25657;SDS011;13517;59.320;18.042;2023-04-24T13:56:17;8.85;;;4.22;;
25657;SDS011;13517;59.320;18.042;2023-04-24T13:58:42;10.30;;;4.57;;
25657;SDS011;13517;59.320;18.042;2023-04-24T14:01:08;8.45;;;4.38;;
25657;SDS011;13517;59.320;18.042;2023-04-24T14:03:33;14.82;;;4.53;;
25657;SDS011;13517;59.320;18.042;2023-04-24T14:05:58;13.27;;;4.90;;
25657;SDS011;13517;59.320;18.042;2023-04-24T14:08:23;7.30;;;4.00;;
25657;SDS011;13517;59.320;18.042;2023-04-24T14:10:50;11.10;;;4.18;;
25657;SDS011;13517;59.320;18.042;2023-04-24T14:13:15;10.60;;;3.85;;
25657;SDS011;13517;59.320;18.042;2023-04-24T14:15:41;7.68;;;4.40;;
25657;SDS011;13517;59.320;18.042;2023-04-24T14:18:06;8.93;;;4.90;;
25657;SDS011;13517;59.320;18.042;2023-04-24T14:20:31;12.15;;;4.90;;
25657;SDS011;13517;59.320;18.042;2023-04-24T14:22:57;10.82;;;5.00;;
25657;SDS011;13517;59.320;18.042;2023-04-24T14:25:25;10.68;;;4.88;;
25657;SDS011;13517;59.320;18.042;2023-04-24T14:27:51;11.70;;;4.55;;
25657;SDS011;13517;59.320;18.042;2023-04-24T14:30:16;11.15;;;4.43;;
25657;SDS011;13517;59.320;18.042;2023-04-24T14:32:41;9.77;;;4.38;;